sensor_id;sensor_type;location;lat;lon;timestamp;pressure;altitude;pressure_sealevel;temperature;humidity
76311;BME280;65120;59.304;18.294;2023-02-19T00:01:40;100059.25;;;0.38;60.18
76311;BME280;65120;59.304;18.294;2023-02-19T00:04:10;100066.09;;;0.37;60.63
76311;BME280;65120;59.304;18.294;2023-02-19T00:06:39;100071.19;;;0.36;60.59
76311;BME280;65120;59.304;18.294;2023-02-19T00:09:07;100074.63;;;0.35;60.65
76311;BME280;65120;59.304;18.294;2023-02-19T00:11:35;100069.47;;;0.33;59.85
76311;BME280;65120;59.304;18.294;2023-02-19T00:14:03;100068.56;;;0.31;59.94
76311;BME280;65120;59.304;18.294;2023-02-19T00:16:31;100063.44;;;0.31;60.57
76311;BME280;65120;59.304;18.294;2023-02-19T00:18:59;100073.69;;;0.30;60.26
76311;BME280;65120;59.304;18.294;2023-02-19T00:21:27;100072.00;;;0.29;59.94
76311;BME280;65120;59.304;18.294;2023-02-19T00:23:56;100069.41;;;0.29;60.71
76311;BME280;65120;59.304;18.294;2023-02-19T00:26:24;100055.69;;;0.27;60.47
76311;BME280;65120;59.304;18.294;2023-02-19T00:28:52;100061.66;;;0.26;60.82
76311;BME280;65120;59.304;18.294;2023-02-19T00:31:21;100065.94;;;0.24;60.17
76311;BME280;65120;59.304;18.294;2023-02-19T00:33:50;100074.47;;;0.22;60.04
76311;BME280;65120;59.304;18.294;2023-02-19T00:36:18;100070.19;;;0.21;60.38
76311;BME280;65120;59.304;18.294;2023-02-19T00:38:45;100066.72;;;0.19;60.17
76311;BME280;65120;59.304;18.294;2023-02-19T00:41:15;100060.72;;;0.17;60.78
76311;BME280;65120;59.304;18.294;2023-02-19T00:43:47;100071.00;;;0.17;60.10
76311;BME280;65120;59.304;18.294;2023-02-19T00:46:14;100071.78;;;0.13;59.92
76311;BME280;65120;59.304;18.294;2023-02-19T00:48:41;100068.41;;;0.14;60.17
76311;BME280;65120;59.304;18.294;2023-02-19T00:51:09;100072.63;;;0.12;60.05
76311;BME280;65120;59.304;18.294;2023-02-19T00:53:35;100076.91;;;0.12;60.29
76311;BME280;65120;59.304;18.294;2023-02-19T00:56:03;100064.03;;;0.10;60.80
76311;BME280;65120;59.304;18.294;2023-02-19T00:58:32;100066.63;;;0.10;60.14
76311;BME280;65120;59.304;18.294;2023-02-19T01:00:59;100069.19;;;0.10;60.14
76311;BME280;65120;59.304;18.294;2023-02-19T01:03:26;100075.13;;;0.08;60.06
76311;BME280;65120;59.304;18.294;2023-02-19T01:05:53;100077.69;;;0.06;60.14
76311;BME280;65120;59.304;18.294;2023-02-19T01:08:20;100071.69;;;0.06;59.67
76311;BME280;65120;59.304;18.294;2023-02-19T01:10:47;100070.81;;;0.05;60.68
76311;BME280;65120;59.304;18.294;2023-02-19T01:13:14;100071.66;;;0.03;60.36
76311;BME280;65120;59.304;18.294;2023-02-19T01:15:43;100071.63;;;0.01;59.77
76311;BME280;65120;59.304;18.294;2023-02-19T01:18:10;100076.75;;;-0.01;59.60
76311;BME280;65120;59.304;18.294;2023-02-19T01:20:37;100068.19;;;-0.01;60.49
76311;BME280;65120;59.304;18.294;2023-02-19T01:23:05;100077.59;;;-0.02;60.28
76311;BME280;65120;59.304;18.294;2023-02-19T01:25:32;100068.16;;;-0.04;60.61
76311;BME280;65120;59.304;18.294;2023-02-19T01:27:58;100073.28;;;-0.04;60.25
76311;BME280;65120;59.304;18.294;2023-02-19T01:30:25;100072.41;;;-0.05;60.72
76311;BME280;65120;59.304;18.294;2023-02-19T01:32:54;100069.84;;;-0.05;60.66
76311;BME280;65120;59.304;18.294;2023-02-19T01:35:21;100071.53;;;-0.07;60.65
76311;BME280;65120;59.304;18.294;2023-02-19T01:37:48;100070.63;;;-0.09;59.59
76311;BME280;65120;59.304;18.294;2023-02-19T01:40:15;100074.09;;;-0.08;60.70
76311;BME280;65120;59.304;18.294;2023-02-19T01:42:42;100078.34;;;-0.09;60.68
76311;BME280;65120;59.304;18.294;2023-02-19T01:45:22;100076.63;;;-0.11;60.14
76311;BME280;65120;59.304;18.294;2023-02-19T01:47:56;100078.31;;;-0.12;60.67
76311;BME280;65120;59.304;18.294;2023-02-19T01:50:27;100076.63;;;-0.11;60.56
76311;BME280;65120;59.304;18.294;2023-02-19T01:52:55;100074.88;;;-0.12;59.70
76311;BME280;65120;59.304;18.294;2023-02-19T01:55:22;100072.31;;;-0.12;60.49
76311;BME280;65120;59.304;18.294;2023-02-19T01:57:52;100069.69;;;-0.15;60.49
76311;BME280;65120;59.304;18.294;2023-02-19T02:00:20;100078.25;;;-0.15;59.67
76311;BME280;65120;59.304;18.294;2023-02-19T02:02:51;100082.53;;;-0.15;60.24
76311;BME280;65120;59.304;18.294;2023-02-19T02:05:33;100057.56;;;-0.27;59.81
76311;BME280;65120;59.304;18.294;2023-02-19T02:08:02;100085.06;;;-0.18;59.89
76311;BME280;65120;59.304;18.294;2023-02-19T02:10:46;100079.91;;;-0.20;60.44
76311;BME280;65120;59.304;18.294;2023-02-19T02:13:13;100079.03;;;-0.20;60.62
76311;BME280;65120;59.304;18.294;2023-02-19T02:15:49;100061.94;;;-0.21;60.26
76311;BME280;65120;59.304;18.294;2023-02-19T02:18:26;100084.16;;;-0.22;59.61
76311;BME280;65120;59.304;18.294;2023-02-19T02:24:19;100074.72;;;-0.23;60.04
76311;BME280;65120;59.304;18.294;2023-02-19T02:27:03;100068.72;;;-0.24;60.08
76311;BME280;65120;59.304;18.294;2023-02-19T02:32:39;100074.69;;;-0.26;60.13
76311;BME280;65120;59.304;18.294;2023-02-19T02:35:20;100078.97;;;-0.27;59.64
76311;BME280;65120;59.304;18.294;2023-02-19T02:37:49;100068.66;;;-0.31;59.89
76311;BME280;65120;59.304;18.294;2023-02-19T02:40:17;100070.38;;;-0.29;59.62
76311;BME280;65120;59.304;18.294;2023-02-19T02:42:44;100076.38;;;-0.28;60.20
76311;BME280;65120;59.304;18.294;2023-02-19T02:45:31;100073.78;;;-0.30;60.35
76311;BME280;65120;59.304;18.294;2023-02-19T02:48:06;100070.31;;;-0.32;59.50
76311;BME280;65120;59.304;18.294;2023-02-19T02:50:37;100074.59;;;-0.32;59.95
76311;BME280;65120;59.304;18.294;2023-02-19T02:53:10;100071.19;;;-0.33;59.41
76311;BME280;65120;59.304;18.294;2023-02-19T02:55:55;100076.28;;;-0.34;59.99
76311;BME280;65120;59.304;18.294;2023-02-19T02:58:25;100065.16;;;-0.35;59.43
76311;BME280;65120;59.304;18.294;2023-02-19T03:00:58;100070.28;;;-0.36;59.62
76311;BME280;65120;59.304;18.294;2023-02-19T03:03:43;100074.56;;;-0.37;59.74
76311;BME280;65120;59.304;18.294;2023-02-19T03:06:14;100069.41;;;-0.37;59.19
76311;BME280;65120;59.304;18.294;2023-02-19T03:08:47;100076.22;;;-0.37;59.52
76311;BME280;65120;59.304;18.294;2023-02-19T03:11:16;100070.25;;;-0.38;59.77
76311;BME280;65120;59.304;18.294;2023-02-19T03:14:11;100083.06;;;-0.38;59.81
76311;BME280;65120;59.304;18.294;2023-02-19T03:17:02;100075.31;;;-0.42;59.89
76311;BME280;65120;59.304;18.294;2023-02-19T03:19:51;100082.19;;;-0.40;60.09
76311;BME280;65120;59.304;18.294;2023-02-19T03:22:22;100075.34;;;-0.41;60.33
76311;BME280;65120;59.304;18.294;2023-02-19T03:24:52;100082.13;;;-0.43;59.85
76311;BME280;65120;59.304;18.294;2023-02-19T03:27:40;100078.72;;;-0.43;60.46
76311;BME280;65120;59.304;18.294;2023-02-19T03:30:11;100077.00;;;-0.43;60.03
76311;BME280;65120;59.304;18.294;2023-02-19T03:32:43;100077.00;;;-0.43;59.51
76311;BME280;65120;59.304;18.294;2023-02-19T03:35:13;100073.50;;;-0.51;60.08
76311;BME280;65120;59.304;18.294;2023-02-19T03:37:45;100087.22;;;-0.46;59.38
76311;BME280;65120;59.304;18.294;2023-02-19T03:40:13;100104.38;;;-0.43;59.65
76311;BME280;65120;59.304;18.294;2023-02-19T03:42:45;100099.19;;;-0.47;60.19
76311;BME280;65120;59.304;18.294;2023-02-19T03:45:23;100103.50;;;-0.44;60.07
76311;BME280;65120;59.304;18.294;2023-02-19T03:48:01;100095.78;;;-0.47;59.47
76311;BME280;65120;59.304;18.294;2023-02-19T03:50:35;100096.63;;;-0.48;59.76
76311;BME280;65120;59.304;18.294;2023-02-19T03:53:11;100091.44;;;-0.50;59.73
76311;BME280;65120;59.304;18.294;2023-02-19T03:55:46;100108.63;;;-0.46;59.30
76311;BME280;65120;59.304;18.294;2023-02-19T03:58:22;100100.84;;;-0.50;59.41
76311;BME280;65120;59.304;18.294;2023-02-19T04:00:54;100120.56;;;-0.46;59.84
76311;BME280;65120;59.304;18.294;2023-02-19T04:03:30;100118.91;;;-0.46;59.41
76311;BME280;65120;59.304;18.294;2023-02-19T04:06:01;100117.16;;;-0.47;58.82
76311;BME280;65120;59.304;18.294;2023-02-19T04:08:29;100114.59;;;-0.48;59.33
76311;BME280;65120;59.304;18.294;2023-02-19T04:10:58;100119.72;;;-0.48;59.26
76311;BME280;65120;59.304;18.294;2023-02-19T04:13:29;100126.56;;;-0.47;59.09
76311;BME280;65120;59.304;18.294;2023-02-19T04:16:01;100119.72;;;-0.48;59.08
76311;BME280;65120;59.304;18.294;2023-02-19T04:18:33;100127.41;;;-0.47;59.84
76311;BME280;65120;59.304;18.294;2023-02-19T04:21:02;100135.97;;;-0.48;59.42
76311;BME280;65120;59.304;18.294;2023-02-19T04:23:34;100123.94;;;-0.50;59.02
76311;BME280;65120;59.304;18.294;2023-02-19T04:26:03;100138.53;;;-0.46;59.11
76311;BME280;65120;59.304;18.294;2023-02-19T04:28:32;100132.53;;;-0.48;59.33
76311;BME280;65120;59.304;18.294;2023-02-19T04:31:00;100112.75;;;-0.55;59.39
76311;BME280;65120;59.304;18.294;2023-02-19T04:33:27;100139.44;;;-0.46;59.33
76311;BME280;65120;59.304;18.294;2023-02-19T04:35:55;100144.56;;;-0.44;59.11
76311;BME280;65120;59.304;18.294;2023-02-19T04:38:22;100143.72;;;-0.43;59.95
76311;BME280;65120;59.304;18.294;2023-02-19T04:40:49;100141.19;;;-0.41;59.17
76311;BME280;65120;59.304;18.294;2023-02-19T04:43:16;100139.47;;;-0.41;60.07
76311;BME280;65120;59.304;18.294;2023-02-19T04:45:43;100130.94;;;-0.40;59.59
76311;BME280;65120;59.304;18.294;2023-02-19T04:48:10;100132.63;;;-0.40;60.03
76311;BME280;65120;59.304;18.294;2023-02-19T04:50:37;100136.97;;;-0.38;59.77
76311;BME280;65120;59.304;18.294;2023-02-19T04:53:06;100140.38;;;-0.37;59.89
76311;BME280;65120;59.304;18.294;2023-02-19T04:55:35;100140.41;;;-0.36;59.27
76311;BME280;65120;59.304;18.294;2023-02-19T04:58:02;100143.88;;;-0.34;60.11
76311;BME280;65120;59.304;18.294;2023-02-19T05:00:30;100135.28;;;-0.36;59.69
76311;BME280;65120;59.304;18.294;2023-02-19T05:02:58;100142.19;;;-0.33;59.53
76311;BME280;65120;59.304;18.294;2023-02-19T05:05:25;100134.44;;;-0.35;60.05
76311;BME280;65120;59.304;18.294;2023-02-19T05:07:52;100126.75;;;-0.35;59.76
76311;BME280;65120;59.304;18.294;2023-02-19T05:10:21;100119.84;;;-0.37;59.83
76311;BME280;65120;59.304;18.294;2023-02-19T05:12:48;100125.03;;;-0.36;59.24
76311;BME280;65120;59.304;18.294;2023-02-19T05:15:15;100127.50;;;-0.42;59.62
76311;BME280;65120;59.304;18.294;2023-02-19T05:17:42;100135.28;;;-0.34;59.95
76311;BME280;65120;59.304;18.294;2023-02-19T05:20:09;100146.44;;;-0.34;59.43
76311;BME280;65120;59.304;18.294;2023-02-19T05:22:36;100142.13;;;-0.35;59.25
76311;BME280;65120;59.304;18.294;2023-02-19T05:25:04;100135.28;;;-0.36;59.57
76311;BME280;65120;59.304;18.294;2023-02-19T05:27:32;100141.28;;;-0.37;59.34
76311;BME280;65120;59.304;18.294;2023-02-19T05:29:59;100144.69;;;-0.35;59.09
76311;BME280;65120;59.304;18.294;2023-02-19T05:32:26;100136.13;;;-0.37;59.47
76311;BME280;65120;59.304;18.294;2023-02-19T05:34:52;100145.56;;;-0.36;59.66
76311;BME280;65120;59.304;18.294;2023-02-19T05:37:19;100131.81;;;-0.38;59.28
76311;BME280;65120;59.304;18.294;2023-02-19T05:39:47;100136.97;;;-0.38;59.11
76311;BME280;65120;59.304;18.294;2023-02-19T05:42:14;100137.81;;;-0.37;59.52
76311;BME280;65120;59.304;18.294;2023-02-19T05:44:42;100147.22;;;-0.38;58.67
76311;BME280;65120;59.304;18.294;2023-02-19T05:47:09;100152.34;;;-0.38;59.00
76311;BME280;65120;59.304;18.294;2023-02-19T05:49:36;100149.78;;;-0.38;59.59
76311;BME280;65120;59.304;18.294;2023-02-19T05:52:03;100155.72;;;-0.40;59.37
76311;BME280;65120;59.304;18.294;2023-02-19T05:54:30;100155.78;;;-0.39;59.41
76311;BME280;65120;59.304;18.294;2023-02-19T05:56:57;100158.28;;;-0.42;59.31
76311;BME280;65120;59.304;18.294;2023-02-19T05:59:25;100160.84;;;-0.42;59.37
76311;BME280;65120;59.304;18.294;2023-02-19T06:01:54;100146.19;;;-0.49;58.77
76311;BME280;65120;59.304;18.294;2023-02-19T06:04:22;100159.09;;;-0.43;59.00
76311;BME280;65120;59.304;18.294;2023-02-19T06:06:49;100165.94;;;-0.43;59.25
76311;BME280;65120;59.304;18.294;2023-02-19T06:09:16;100176.19;;;-0.45;59.37
76311;BME280;65120;59.304;18.294;2023-02-19T06:11:43;100162.38;;;-0.53;59.24
76311;BME280;65120;59.304;18.294;2023-02-19T06:14:11;100177.00;;;-0.48;59.89
76311;BME280;65120;59.304;18.294;2023-02-19T06:16:39;100177.88;;;-0.47;59.50
76311;BME280;65120;59.304;18.294;2023-02-19T06:19:07;100177.88;;;-0.47;59.02
76311;BME280;65120;59.304;18.294;2023-02-19T06:21:34;100188.97;;;-0.48;59.14
76311;BME280;65120;59.304;18.294;2023-02-19T06:24:04;100185.53;;;-0.49;59.49
76311;BME280;65120;59.304;18.294;2023-02-19T06:26:32;100192.38;;;-0.49;59.46
76311;BME280;65120;59.304;18.294;2023-02-19T06:28:58;100197.50;;;-0.51;59.47
76311;BME280;65120;59.304;18.294;2023-02-19T06:31:25;100197.50;;;-0.51;59.31
76311;BME280;65120;59.304;18.294;2023-02-19T06:33:52;100193.97;;;-0.54;59.26
76311;BME280;65120;59.304;18.294;2023-02-19T06:36:22;100200.88;;;-0.53;59.76
76311;BME280;65120;59.304;18.294;2023-02-19T06:38:50;100190.59;;;-0.53;59.57
76311;BME280;65120;59.304;18.294;2023-02-19T06:41:17;100196.44;;;-0.62;59.45
76311;BME280;65120;59.304;18.294;2023-02-19T06:43:43;100201.69;;;-0.54;59.08
76311;BME280;65120;59.304;18.294;2023-02-19T06:46:11;100201.69;;;-0.54;59.55
76311;BME280;65120;59.304;18.294;2023-02-19T06:48:39;100192.31;;;-0.54;59.30
76311;BME280;65120;59.304;18.294;2023-02-19T06:51:08;100188.69;;;-0.65;59.48
76311;BME280;65120;59.304;18.294;2023-02-19T06:53:36;100211.09;;;-0.55;59.34
76311;BME280;65120;59.304;18.294;2023-02-19T06:56:05;100205.09;;;-0.55;59.22
76311;BME280;65120;59.304;18.294;2023-02-19T06:58:33;100206.81;;;-0.54;59.15
76311;BME280;65120;59.304;18.294;2023-02-19T07:00:59;100217.06;;;-0.54;59.41
76311;BME280;65120;59.304;18.294;2023-02-19T07:03:26;100221.34;;;-0.55;59.45
76311;BME280;65120;59.304;18.294;2023-02-19T07:05:53;100220.50;;;-0.55;59.38
76311;BME280;65120;59.304;18.294;2023-02-19T07:08:20;100209.31;;;-0.57;59.22
76311;BME280;65120;59.304;18.294;2023-02-19T07:10:54;100208.47;;;-0.59;59.19
76311;BME280;65120;59.304;18.294;2023-02-19T07:13:22;100221.34;;;-0.55;59.19
76311;BME280;65120;59.304;18.294;2023-02-19T07:15:49;100222.19;;;-0.54;59.65
76311;BME280;65120;59.304;18.294;2023-02-19T07:18:16;100218.78;;;-0.56;59.09
76311;BME280;65120;59.304;18.294;2023-02-19T07:20:43;100233.34;;;-0.54;59.11
76311;BME280;65120;59.304;18.294;2023-02-19T07:23:10;100230.75;;;-0.55;59.31
76311;BME280;65120;59.304;18.294;2023-02-19T07:25:37;100223.94;;;-0.53;59.55
76311;BME280;65120;59.304;18.294;2023-02-19T07:28:06;100229.94;;;-0.53;59.68
76311;BME280;65120;59.304;18.294;2023-02-19T07:30:33;100256.44;;;-0.52;59.04
76311;BME280;65120;59.304;18.294;2023-02-19T07:33:00;100253.94;;;-0.51;59.28
76311;BME280;65120;59.304;18.294;2023-02-19T07:35:27;100242.81;;;-0.50;58.85
76311;BME280;65120;59.304;18.294;2023-02-19T07:37:54;100232.59;;;-0.48;59.09
76311;BME280;65120;59.304;18.294;2023-02-19T07:40:20;100231.78;;;-0.46;59.13
76311;BME280;65120;59.304;18.294;2023-02-19T07:42:47;100257.47;;;-0.44;59.02
76311;BME280;65120;59.304;18.294;2023-02-19T07:45:16;100252.38;;;-0.42;59.04
76311;BME280;65120;59.304;18.294;2023-02-19T07:47:43;100248.09;;;-0.42;59.30
76311;BME280;65120;59.304;18.294;2023-02-19T07:50:09;100249.00;;;-0.38;59.09
76311;BME280;65120;59.304;18.294;2023-02-19T07:52:36;100255.91;;;-0.36;59.34
76311;BME280;65120;59.304;18.294;2023-02-19T07:55:04;100256.78;;;-0.34;58.98
76311;BME280;65120;59.304;18.294;2023-02-19T07:57:30;100271.38;;;-0.31;58.88
76311;BME280;65120;59.304;18.294;2023-02-19T07:59:57;100249.16;;;-0.29;59.35
76311;BME280;65120;59.304;18.294;2023-02-19T08:02:26;100264.59;;;-0.26;58.99
76311;BME280;65120;59.304;18.294;2023-02-19T08:05:10;100271.50;;;-0.24;58.34
76311;BME280;65120;59.304;18.294;2023-02-19T08:07:38;100265.56;;;-0.21;58.74
76311;BME280;65120;59.304;18.294;2023-02-19T08:10:05;100267.34;;;-0.17;58.34
76311;BME280;65120;59.304;18.294;2023-02-19T08:12:56;100264.84;;;-0.12;59.40
76311;BME280;65120;59.304;18.294;2023-02-19T08:15:40;100270.03;;;-0.11;59.17
76311;BME280;65120;59.304;18.294;2023-02-19T08:18:09;100286.38;;;-0.06;58.76
76311;BME280;65120;59.304;18.294;2023-02-19T08:20:36;100271.81;;;-0.05;58.13
76311;BME280;65120;59.304;18.294;2023-02-19T08:23:03;100274.50;;;0.01;58.60
76311;BME280;65120;59.304;18.294;2023-02-19T08:25:31;100277.09;;;0.06;57.67
76311;BME280;65120;59.304;18.294;2023-02-19T08:27:58;100272.06;;;0.10;58.28
76311;BME280;65120;59.304;18.294;2023-02-19T08:30:25;100282.38;;;0.13;58.27
76311;BME280;65120;59.304;18.294;2023-02-19T08:32:52;100275.63;;;0.18;58.18
76311;BME280;65120;59.304;18.294;2023-02-19T08:35:21;100275.66;;;0.20;58.29
76311;BME280;65120;59.304;18.294;2023-02-19T08:37:48;100277.47;;;0.27;58.12
76311;BME280;65120;59.304;18.294;2023-02-19T08:40:15;100266.28;;;0.24;58.32
76311;BME280;65120;59.304;18.294;2023-02-19T08:42:42;100286.97;;;0.33;57.79
76311;BME280;65120;59.304;18.294;2023-02-19T08:45:08;100283.59;;;0.37;58.01
76311;BME280;65120;59.304;18.294;2023-02-19T08:47:36;100283.53;;;0.34;57.96
76311;BME280;65120;59.304;18.294;2023-02-19T08:50:03;100285.38;;;0.41;58.00
76311;BME280;65120;59.304;18.294;2023-02-19T08:52:32;100287.13;;;0.45;58.10
76311;BME280;65120;59.304;18.294;2023-02-19T08:54:59;100288.94;;;0.49;57.70
76311;BME280;65120;59.304;18.294;2023-02-19T08:57:26;100282.94;;;0.50;57.12
76311;BME280;65120;59.304;18.294;2023-02-19T08:59:54;100282.16;;;0.56;57.66
76311;BME280;65120;59.304;18.294;2023-02-19T09:02:21;100280.50;;;0.58;57.56
76311;BME280;65120;59.304;18.294;2023-02-19T09:04:48;100291.63;;;0.58;57.46
76311;BME280;65120;59.304;18.294;2023-02-19T09:07:16;100295.94;;;0.62;57.38
76311;BME280;65120;59.304;18.294;2023-02-19T09:09:44;100286.56;;;0.64;57.37
76311;BME280;65120;59.304;18.294;2023-02-19T09:12:11;100302.03;;;0.66;57.57
76311;BME280;65120;59.304;18.294;2023-02-19T09:14:38;100277.88;;;0.56;56.80
76311;BME280;65120;59.304;18.294;2023-02-19T09:17:06;100291.78;;;0.69;56.83
76311;BME280;65120;59.304;18.294;2023-02-19T09:19:34;100299.44;;;0.67;56.92
76311;BME280;65120;59.304;18.294;2023-02-19T09:22:02;100306.38;;;0.72;56.94
76311;BME280;65120;59.304;18.294;2023-02-19T09:24:29;100308.16;;;0.76;57.42
76311;BME280;65120;59.304;18.294;2023-02-19T09:26:57;100310.72;;;0.76;57.49
76311;BME280;65120;59.304;18.294;2023-02-19T09:29:26;100298.69;;;0.72;57.06
76311;BME280;65120;59.304;18.294;2023-02-19T09:31:55;100303.03;;;0.77;56.91
76311;BME280;65120;59.304;18.294;2023-02-19T09:34:23;100308.22;;;0.80;56.93
76311;BME280;65120;59.304;18.294;2023-02-19T09:36:50;100312.53;;;0.83;56.65
76311;BME280;65120;59.304;18.294;2023-02-19T09:39:18;100315.13;;;0.83;56.34
76311;BME280;65120;59.304;18.294;2023-02-19T09:41:46;100312.53;;;0.84;56.01
76311;BME280;65120;59.304;18.294;2023-02-19T09:44:20;100314.28;;;0.85;56.32
76311;BME280;65120;59.304;18.294;2023-02-19T09:46:51;100317.72;;;0.87;55.55
76311;BME280;65120;59.304;18.294;2023-02-19T09:49:20;100294.53;;;0.83;56.68
76311;BME280;65120;59.304;18.294;2023-02-19T09:51:52;100322.09;;;0.93;56.36
76311;BME280;65120;59.304;18.294;2023-02-19T09:54:22;100327.28;;;0.96;56.10
76311;BME280;65120;59.304;18.294;2023-02-19T09:56:51;100312.72;;;0.98;56.04
76311;BME280;65120;59.304;18.294;2023-02-19T09:59:23;100320.47;;;1.00;55.68
76311;BME280;65120;59.304;18.294;2023-02-19T10:01:56;100325.66;;;1.03;55.70
76311;BME280;65120;59.304;18.294;2023-02-19T10:04:25;100318.72;;;0.99;55.84
76311;BME280;65120;59.304;18.294;2023-02-19T10:06:53;100334.28;;;1.06;55.37
76311;BME280;65120;59.304;18.294;2023-02-19T10:09:25;100332.59;;;1.08;56.40
76311;BME280;65120;59.304;18.294;2023-02-19T10:11:53;100333.47;;;1.10;56.10
76311;BME280;65120;59.304;18.294;2023-02-19T10:14:28;100337.78;;;1.11;56.43
76311;BME280;65120;59.304;18.294;2023-02-19T10:16:58;100343.78;;;1.13;55.07
76311;BME280;65120;59.304;18.294;2023-02-19T10:19:26;100342.09;;;1.14;56.14
76311;BME280;65120;59.304;18.294;2023-02-19T10:21:53;100347.28;;;1.17;55.83
76311;BME280;65120;59.304;18.294;2023-02-19T10:24:24;100345.53;;;1.16;56.12
76311;BME280;65120;59.304;18.294;2023-02-19T10:26:53;100355.00;;;1.19;55.51
76311;BME280;65120;59.304;18.294;2023-02-19T10:29:22;100357.56;;;1.17;55.29
76311;BME280;65120;59.304;18.294;2023-02-19T10:32:13;100361.06;;;1.24;56.29
76311;BME280;65120;59.304;18.294;2023-02-19T10:34:41;100364.50;;;1.24;55.73
76311;BME280;65120;59.304;18.294;2023-02-19T10:37:11;100373.97;;;1.25;54.84
76311;BME280;65120;59.304;18.294;2023-02-19T10:39:41;100370.56;;;1.28;55.63
76311;BME280;65120;59.304;18.294;2023-02-19T10:42:17;100379.13;;;1.27;55.32
76311;BME280;65120;59.304;18.294;2023-02-19T10:44:48;100376.59;;;1.28;55.27
76311;BME280;65120;59.304;18.294;2023-02-19T10:47:20;100372.31;;;1.29;55.34
76311;BME280;65120;59.304;18.294;2023-02-19T10:49:49;100372.34;;;1.33;54.91
76311;BME280;65120;59.304;18.294;2023-02-19T10:52:19;100369.78;;;1.35;55.44
76311;BME280;65120;59.304;18.294;2023-02-19T10:54:49;100368.13;;;1.37;54.88
76311;BME280;65120;59.304;18.294;2023-02-19T10:57:24;100365.53;;;1.37;55.07
76311;BME280;65120;59.304;18.294;2023-02-19T10:59:58;100368.97;;;1.39;54.78
76311;BME280;65120;59.304;18.294;2023-02-19T11:02:26;100359.53;;;1.38;54.38
76311;BME280;65120;59.304;18.294;2023-02-19T11:05:16;100377.63;;;1.43;55.41
76311;BME280;65120;59.304;18.294;2023-02-19T11:07:46;100375.06;;;1.43;55.24
76311;BME280;65120;59.304;18.294;2023-02-19T11:10:24;100371.66;;;1.45;54.91
76311;BME280;65120;59.304;18.294;2023-02-19T11:12:53;100372.50;;;1.47;54.88
76311;BME280;65120;59.304;18.294;2023-02-19T11:15:24;100373.38;;;1.48;54.97
76311;BME280;65120;59.304;18.294;2023-02-19T11:17:57;100383.72;;;1.51;54.49
76311;BME280;65120;59.304;18.294;2023-02-19T11:20:25;100372.53;;;1.50;54.68
76311;BME280;65120;59.304;18.294;2023-02-19T11:22:57;100375.16;;;1.53;55.00
76311;BME280;65120;59.304;18.294;2023-02-19T11:25:26;100369.13;;;1.50;55.05
76311;BME280;65120;59.304;18.294;2023-02-19T11:27:55;100388.06;;;1.56;55.23
76311;BME280;65120;59.304;18.294;2023-02-19T11:30:40;100382.97;;;1.60;55.05
76311;BME280;65120;59.304;18.294;2023-02-19T11:33:23;100399.28;;;1.62;55.43
76311;BME280;65120;59.304;18.294;2023-02-19T11:35:58;100375.19;;;1.55;54.70
76311;BME280;65120;59.304;18.294;2023-02-19T11:38:26;100388.97;;;1.62;54.63
76311;BME280;65120;59.304;18.294;2023-02-19T11:41:02;100392.41;;;1.62;54.24
76311;BME280;65120;59.304;18.294;2023-02-19T11:43:48;100401.88;;;1.65;54.65
76311;BME280;65120;59.304;18.294;2023-02-19T11:46:23;100398.50;;;1.67;54.27
76311;BME280;65120;59.304;18.294;2023-02-19T11:48:59;100392.50;;;1.68;54.59
76311;BME280;65120;59.304;18.294;2023-02-19T11:51:36;100392.50;;;1.70;54.56
76311;BME280;65120;59.304;18.294;2023-02-19T11:54:27;100396.84;;;1.71;54.50
76311;BME280;65120;59.304;18.294;2023-02-19T11:57:03;100397.69;;;1.73;54.42
76311;BME280;65120;59.304;18.294;2023-02-19T11:59:41;100399.44;;;1.74;53.67
76311;BME280;65120;59.304;18.294;2023-02-19T12:02:23;100401.16;;;1.76;54.65
76311;BME280;65120;59.304;18.294;2023-02-19T12:05:03;100382.22;;;1.68;54.23
76311;BME280;65120;59.304;18.294;2023-02-19T12:07:56;100414.97;;;1.80;54.67
76311;BME280;65120;59.304;18.294;2023-02-19T12:10:35;100406.38;;;1.81;54.04
76311;BME280;65120;59.304;18.294;2023-02-19T12:13:14;100408.97;;;1.83;53.93
76311;BME280;65120;59.304;18.294;2023-02-19T12:15:54;100396.94;;;1.80;54.33
76311;BME280;65120;59.304;18.294;2023-02-19T12:18:52;100383.97;;;1.71;53.75
76311;BME280;65120;59.304;18.294;2023-02-19T12:21:31;100408.19;;;1.88;53.76
76311;BME280;65120;59.304;18.294;2023-02-19T12:24:18;100406.47;;;1.89;53.85
76311;BME280;65120;59.304;18.294;2023-02-19T12:27:03;100403.91;;;1.90;53.54
76311;BME280;65120;59.304;18.294;2023-02-19T12:29:49;100395.28;;;1.87;53.71
76311;BME280;65120;59.304;18.294;2023-02-19T12:32:31;100418.56;;;1.94;54.13
76311;BME280;65120;59.304;18.294;2023-02-19T12:35:50;100410.81;;;1.94;53.37
76311;BME280;65120;59.304;18.294;2023-02-19T12:38:23;100419.38;;;1.92;53.27
76311;BME280;65120;59.304;18.294;2023-02-19T12:41:05;100416.84;;;1.95;52.95
76311;BME280;65120;59.304;18.294;2023-02-19T12:43:39;100411.69;;;1.95;52.61
76311;BME280;65120;59.304;18.294;2023-02-19T12:46:11;100420.31;;;1.97;53.22
76311;BME280;65120;59.304;18.294;2023-02-19T12:48:44;100417.66;;;1.92;52.86
76311;BME280;65120;59.304;18.294;2023-02-19T12:51:20;100428.88;;;1.99;52.90
76311;BME280;65120;59.304;18.294;2023-02-19T12:53:52;100424.63;;;1.99;52.68
76311;BME280;65120;59.304;18.294;2023-02-19T12:56:22;100425.47;;;2.00;52.60
76311;BME280;65120;59.304;18.294;2023-02-19T12:58:52;100430.63;;;2.01;52.83
76311;BME280;65120;59.304;18.294;2023-02-19T13:01:25;100427.19;;;2.01;52.73
76311;BME280;65120;59.304;18.294;2023-02-19T13:04:14;100421.19;;;2.00;52.03
76311;BME280;65120;59.304;18.294;2023-02-19T13:06:50;100416.06;;;2.03;52.90
76311;BME280;65120;59.304;18.294;2023-02-19T13:09:23;100426.44;;;2.08;52.57
76311;BME280;65120;59.304;18.294;2023-02-19T13:11:55;100428.13;;;2.08;52.60